JBU2135 KPBI-KISP
Flight info
| Callsign | JBU2135 |
|---|---|
| Flight time | N/A |
| Altitude | 37000 |
| Route | SLIDZ3 LENDS PELCN Y309 FLRDA SAGGY CHIEZ Q161 KALDA SARDI1 |
| Aircraft | A320/M-SDE3FGHIRWY/LB1 |
Departure
| Time | 2026-05-04 19:48 |
|---|---|
| Airport | Palm Beach International Airport (KPBI) |
Arrival
| Time | N/A |
|---|---|
| Airport | Long Island MacArthur Airport (KISP) |
| Time | Latitude | Longitude | Altitude | Speed | Heading |
|---|---|---|---|---|---|
| 2026-05-04 19:23 | 26.68524 | -80.08933 | 30 ft | 0 kts | 2° |
| 2026-05-04 19:40 | 26.68509 | -80.08934 | 30 ft | 2 kts | 2° |
| 2026-05-04 19:40 | 26.68491 | -80.08935 | 30 ft | 2 kts | 2° |
| 2026-05-04 19:41 | 26.68474 | -80.08936 | 30 ft | 2 kts | 2° |
| 2026-05-04 19:41 | 26.68458 | -80.08935 | 28 ft | 2 kts | 353° |
| 2026-05-04 19:41 | 26.68442 | -80.08929 | 31 ft | 2 kts | 295° |
| 2026-05-04 19:41 | 26.68440 | -80.08926 | 31 ft | 0 kts | 286° |
| 2026-05-04 19:43 | 26.68445 | -80.08973 | 26 ft | 10 kts | 275° |
| 2026-05-04 19:44 | 26.68448 | -80.09062 | 26 ft | 13 kts | 259° |
| 2026-05-04 19:44 | 26.68376 | -80.09108 | 27 ft | 13 kts | 208° |
| 2026-05-04 19:44 | 26.68361 | -80.09206 | 25 ft | 14 kts | 272° |
| 2026-05-04 19:44 | 26.68366 | -80.09325 | 27 ft | 16 kts | 273° |
| 2026-05-04 19:45 | 26.68372 | -80.09458 | 25 ft | 18 kts | 273° |
| 2026-05-04 19:45 | 26.68378 | -80.09603 | 30 ft | 20 kts | 272° |
| 2026-05-04 19:45 | 26.68384 | -80.09759 | 27 ft | 21 kts | 272° |
| 2026-05-04 19:45 | 26.68392 | -80.09926 | 25 ft | 22 kts | 272° |
| 2026-05-04 19:46 | 26.68399 | -80.10100 | 25 ft | 23 kts | 272° |
| 2026-05-04 19:46 | 26.68408 | -80.10287 | 28 ft | 25 kts | 273° |
| 2026-05-04 19:46 | 26.68416 | -80.10485 | 25 ft | 26 kts | 273° |
| 2026-05-04 19:46 | 26.68426 | -80.10696 | 25 ft | 28 kts | 273° |
| 2026-05-04 19:47 | 26.68376 | -80.10818 | 26 ft | 15 kts | 178° |
| 2026-05-04 19:47 | 26.68317 | -80.10737 | 25 ft | 16 kts | 91° |
| 2026-05-04 19:47 | 26.68311 | -80.10595 | 25 ft | 26 kts | 93° |
| 2026-05-04 19:47 | 26.68291 | -80.10128 | 29 ft | 91 kts | 93° |
| 2026-05-04 19:48 | 26.68255 | -80.09225 | 26 ft | 139 kts | 92° |
| 2026-05-04 19:48 | 26.68188 | -80.08066 | 412 ft | 146 kts | 90° |
| 2026-05-04 19:48 | 26.68278 | -80.06971 | 1141 ft | 139 kts | 77° |
| 2026-05-04 19:48 | 26.68502 | -80.05917 | 1673 ft | 142 kts | 73° |
| 2026-05-04 19:49 | 26.68717 | -80.04786 | 2031 ft | 158 kts | 73° |
| 2026-05-04 19:49 | 26.69122 | -80.03552 | 2297 ft | 181 kts | 64° |
| 2026-05-04 19:49 | 26.69696 | -80.02192 | 2583 ft | 206 kts | 63° |
| 2026-05-04 19:49 | 26.70370 | -80.00676 | 2997 ft | 229 kts | 63° |
| 2026-05-04 19:50 | 26.71121 | -79.99023 | 3556 ft | 244 kts | 62° |
| 2026-05-04 19:50 | 26.71960 | -79.97359 | 4348 ft | 250 kts | 52° |
| 2026-05-04 19:50 | 26.73098 | -79.95852 | 5102 ft | 258 kts | 49° |
| 2026-05-04 19:50 | 26.74290 | -79.94312 | 5861 ft | 266 kts | 49° |
| 2026-05-04 19:51 | 26.75521 | -79.92723 | 6580 ft | 275 kts | 49° |
| 2026-05-04 19:51 | 26.76793 | -79.91084 | 7244 ft | 284 kts | 47° |
| 2026-05-04 19:51 | 26.78105 | -79.89386 | 7909 ft | 292 kts | 47° |
| 2026-05-04 19:51 | 26.79451 | -79.87642 | 8598 ft | 300 kts | 46° |
| 2026-05-04 19:52 | 26.80832 | -79.85853 | 9304 ft | 307 kts | 47° |
| 2026-05-04 19:52 | 26.82236 | -79.84032 | 10034 ft | 312 kts | 47° |
| 2026-05-04 19:52 | 26.83650 | -79.82199 | 10714 ft | 317 kts | 47° |
| 2026-05-04 19:52 | 26.85098 | -79.80318 | 11428 ft | 321 kts | 46° |
| 2026-05-04 19:53 | 26.86574 | -79.78401 | 11925 ft | 334 kts | 46° |
| 2026-05-04 19:53 | 26.88141 | -79.76366 | 12128 ft | 354 kts | 46° |
| 2026-05-04 19:53 | 26.89770 | -79.74244 | 12647 ft | 363 kts | 46° |
| 2026-05-04 19:53 | 26.91425 | -79.72086 | 13269 ft | 367 kts | 46° |
| 2026-05-04 19:54 | 26.93151 | -79.69955 | 13887 ft | 371 kts | 43° |
| 2026-05-04 19:54 | 26.94980 | -79.67906 | 14439 ft | 374 kts | 40° |
| 2026-05-04 19:54 | 26.96883 | -79.65899 | 14976 ft | 378 kts | 39° |
| 2026-05-04 19:54 | 26.98836 | -79.63900 | 15415 ft | 386 kts | 38° |
| 2026-05-04 19:55 | 27.00867 | -79.61832 | 15529 ft | 403 kts | 39° |
| 2026-05-04 19:55 | 27.02978 | -79.59667 | 15655 ft | 419 kts | 39° |
| 2026-05-04 19:55 | 27.05154 | -79.57409 | 15857 ft | 432 kts | 39° |
| 2026-05-04 19:55 | 27.07362 | -79.55089 | 16289 ft | 438 kts | 40° |
| 2026-05-04 19:56 | 27.09590 | -79.52726 | 16830 ft | 442 kts | 40° |
| 2026-05-04 19:56 | 27.11828 | -79.50341 | 17367 ft | 445 kts | 40° |
| 2026-05-04 19:56 | 27.14084 | -79.47939 | 17856 ft | 450 kts | 40° |
| 2026-05-04 19:56 | 27.16370 | -79.45512 | 18314 ft | 454 kts | 40° |
| 2026-05-04 19:57 | 27.18679 | -79.43065 | 18714 ft | 459 kts | 40° |
| 2026-05-04 19:57 | 27.21010 | -79.40593 | 19104 ft | 463 kts | 40° |
| 2026-05-04 19:57 | 27.23360 | -79.38099 | 19504 ft | 467 kts | 40° |
| 2026-05-04 19:57 | 27.25728 | -79.35587 | 19920 ft | 470 kts | 40° |
| 2026-05-04 19:58 | 27.28111 | -79.33059 | 20333 ft | 473 kts | 40° |
| 2026-05-04 19:58 | 27.30509 | -79.30511 | 20734 ft | 476 kts | 40° |
| 2026-05-04 19:58 | 27.32921 | -79.27944 | 21120 ft | 479 kts | 40° |
| 2026-05-04 19:58 | 27.35346 | -79.25361 | 21490 ft | 482 kts | 40° |
| 2026-05-04 19:59 | 27.37785 | -79.22765 | 21855 ft | 484 kts | 40° |
| 2026-05-04 19:59 | 27.40239 | -79.20150 | 22202 ft | 487 kts | 40° |
| 2026-05-04 19:59 | 27.42705 | -79.17521 | 22555 ft | 490 kts | 40° |
| 2026-05-04 19:59 | 27.45183 | -79.14876 | 22890 ft | 492 kts | 40° |
| 2026-05-04 20:00 | 27.47675 | -79.12217 | 23221 ft | 495 kts | 40° |
| 2026-05-04 20:00 | 27.50180 | -79.09540 | 23527 ft | 498 kts | 40° |
| 2026-05-04 20:00 | 27.52695 | -79.06851 | 23793 ft | 500 kts | 40° |
| 2026-05-04 20:00 | 27.55228 | -79.04142 | 24021 ft | 504 kts | 40° |
| 2026-05-04 20:01 | 27.57786 | -79.01408 | 24131 ft | 510 kts | 40° |
| 2026-05-04 20:01 | 27.60372 | -78.98640 | 24244 ft | 515 kts | 40° |
| 2026-05-04 20:01 | 27.62982 | -78.95842 | 24380 ft | 520 kts | 40° |
| 2026-05-04 20:01 | 27.65622 | -78.93037 | 24495 ft | 523 kts | 37° |
| 2026-05-04 20:02 | 27.68611 | -78.90765 | 24601 ft | 516 kts | 22° |
| 2026-05-04 20:02 | 27.71935 | -78.89329 | 24715 ft | 509 kts | 9° |
| 2026-05-04 20:02 | 27.75397 | -78.88672 | 24854 ft | 502 kts | 359° |
| 2026-05-04 20:02 | 27.78870 | -78.88514 | 25029 ft | 498 kts | 354° |
| 2026-05-04 20:03 | 27.82327 | -78.88529 | 25228 ft | 497 kts | 354° |
| 2026-05-04 20:03 | 27.85785 | -78.88482 | 25450 ft | 498 kts | 356° |
| 2026-05-04 20:03 | 27.89201 | -78.88259 | 25682 ft | 499 kts | 359° |
| 2026-05-04 20:03 | 27.92655 | -78.87851 | 25944 ft | 500 kts | 1° |
| 2026-05-04 20:04 | 27.96109 | -78.87310 | 26187 ft | 501 kts | 2° |
| 2026-05-04 20:04 | 27.99549 | -78.86715 | 26437 ft | 500 kts | 2° |
| 2026-05-04 20:04 | 28.02985 | -78.86122 | 26685 ft | 499 kts | 2° |
| 2026-05-04 20:04 | 28.06415 | -78.85567 | 26942 ft | 497 kts | 1° |
| 2026-05-04 20:05 | 28.09842 | -78.85055 | 27204 ft | 496 kts | 0° |
| 2026-05-04 20:05 | 28.13264 | -78.84580 | 27464 ft | 495 kts | 0° |
| 2026-05-04 20:05 | 28.16677 | -78.84123 | 27732 ft | 494 kts | 360° |
| 2026-05-04 20:05 | 28.20085 | -78.83668 | 28013 ft | 493 kts | 360° |
| 2026-05-04 20:06 | 28.23489 | -78.83204 | 28319 ft | 493 kts | 0° |
| 2026-05-04 20:06 | 28.26892 | -78.82730 | 28573 ft | 493 kts | 0° |
| 2026-05-04 20:06 | 28.30293 | -78.82244 | 28852 ft | 492 kts | 0° |
| 2026-05-04 20:06 | 28.33688 | -78.81758 | 29142 ft | 492 kts | 0° |
| 2026-05-04 20:07 | 28.37082 | -78.81269 | 29439 ft | 491 kts | 360° |
| 2026-05-04 20:07 | 28.40470 | -78.80782 | 29730 ft | 490 kts | 360° |
| 2026-05-04 20:07 | 28.43807 | -78.80305 | 30034 ft | 490 kts | 360° |
| 2026-05-04 20:07 | 28.47232 | -78.79819 | 30309 ft | 489 kts | 359° |
| 2026-05-04 20:08 | 28.50603 | -78.79340 | 30601 ft | 488 kts | 359° |
| 2026-05-04 20:08 | 28.53921 | -78.78865 | 30881 ft | 486 kts | 359° |
| 2026-05-04 20:08 | 28.57319 | -78.78378 | 31159 ft | 486 kts | 359° |
| 2026-05-04 20:08 | 28.60670 | -78.77900 | 31420 ft | 485 kts | 359° |
| 2026-05-04 20:09 | 28.64014 | -78.77427 | 31683 ft | 484 kts | 359° |
| 2026-05-04 20:09 | 28.67310 | -78.76964 | 31948 ft | 483 kts | 358° |
| 2026-05-04 20:09 | 28.70649 | -78.76491 | 32216 ft | 483 kts | 358° |
| 2026-05-04 20:09 | 28.73979 | -78.76018 | 32485 ft | 482 kts | 358° |
| 2026-05-04 20:10 | 28.77308 | -78.75542 | 32749 ft | 482 kts | 358° |
| 2026-05-04 20:10 | 28.80632 | -78.75063 | 33052 ft | 481 kts | 358° |
| 2026-05-04 20:10 | 28.83952 | -78.74583 | 33318 ft | 481 kts | 358° |
| 2026-05-04 20:10 | 28.87271 | -78.74105 | 33586 ft | 480 kts | 358° |
| 2026-05-04 20:11 | 28.90587 | -78.73629 | 33860 ft | 480 kts | 358° |
| 2026-05-04 20:11 | 28.93899 | -78.73156 | 34122 ft | 479 kts | 358° |
| 2026-05-04 20:11 | 28.97206 | -78.72682 | 34352 ft | 479 kts | 358° |
| 2026-05-04 20:11 | 29.00515 | -78.72206 | 34579 ft | 479 kts | 358° |
| 2026-05-04 20:12 | 29.03824 | -78.71730 | 34809 ft | 479 kts | 358° |
| 2026-05-04 20:12 | 29.07134 | -78.71252 | 35083 ft | 479 kts | 358° |
| 2026-05-04 20:12 | 29.10438 | -78.70775 | 35323 ft | 479 kts | 358° |
| 2026-05-04 20:12 | 29.13746 | -78.70304 | 35574 ft | 479 kts | 358° |